sensor_id;sensor_type;location;lat;lon;timestamp;pressure;altitude;pressure_sealevel;temperature;humidity
31121;BME280;17770;45.966;13.632;2022-07-24T00:00:15;100564.97;;;35.39;28.32
31121;BME280;17770;45.966;13.632;2022-07-24T00:02:42;100552.56;;;35.38;28.45
31121;BME280;17770;45.966;13.632;2022-07-24T00:05:08;100556.06;;;35.39;27.92
31121;BME280;17770;45.966;13.632;2022-07-24T00:07:34;100554.41;;;35.38;27.84
31121;BME280;17770;45.966;13.632;2022-07-24T00:10:00;100561.38;;;35.32;28.64
31121;BME280;17770;45.966;13.632;2022-07-24T00:12:26;100560.38;;;35.33;28.05
31121;BME280;17770;45.966;13.632;2022-07-24T00:14:52;100558.91;;;35.31;28.05
31121;BME280;17770;45.966;13.632;2022-07-24T00:17:18;100542.00;;;35.30;28.04
31121;BME280;17770;45.966;13.632;2022-07-24T00:19:44;100527.72;;;35.30;27.98
31121;BME280;17770;45.966;13.632;2022-07-24T00:22:10;100524.22;;;35.29;27.98
31121;BME280;17770;45.966;13.632;2022-07-24T00:24:36;100513.69;;;35.28;27.85
31121;BME280;17770;45.966;13.632;2022-07-24T00:27:01;100493.47;;;35.25;27.89
31121;BME280;17770;45.966;13.632;2022-07-24T00:29:28;100478.56;;;35.23;27.94
31121;BME280;17770;45.966;13.632;2022-07-24T00:31:54;100472.16;;;35.24;28.21
31121;BME280;17770;45.966;13.632;2022-07-24T00:34:20;100464.13;;;35.24;28.19
31121;BME280;17770;45.966;13.632;2022-07-24T00:36:46;100454.41;;;35.23;27.83
31121;BME280;17770;45.966;13.632;2022-07-24T00:39:12;100450.09;;;35.22;28.13
31121;BME280;17770;45.966;13.632;2022-07-24T00:41:38;100455.84;;;35.19;28.32
31121;BME280;17770;45.966;13.632;2022-07-24T00:44:05;100473.63;;;35.20;28.10
31121;BME280;17770;45.966;13.632;2022-07-24T00:46:32;100477.13;;;35.20;28.21
31121;BME280;17770;45.966;13.632;2022-07-24T00:48:58;100489.91;;;35.18;27.95
31121;BME280;17770;45.966;13.632;2022-07-24T00:51:24;100481.03;;;35.18;28.36
31121;BME280;17770;45.966;13.632;2022-07-24T00:53:50;100486.59;;;35.16;28.47
31121;BME280;17770;45.966;13.632;2022-07-24T00:56:16;100489.47;;;35.15;28.10
31121;BME280;17770;45.966;13.632;2022-07-24T00:58:42;100484.13;;;35.15;27.94
31121;BME280;17770;45.966;13.632;2022-07-24T01:01:10;100494.00;;;35.14;28.13
31121;BME280;17770;45.966;13.632;2022-07-24T01:03:35;100491.53;;;35.13;27.96
31121;BME280;17770;45.966;13.632;2022-07-24T01:06:01;100488.84;;;35.13;28.39
31121;BME280;17770;45.966;13.632;2022-07-24T01:08:27;100487.41;;;35.10;27.94
31121;BME280;17770;45.966;13.632;2022-07-24T01:10:53;100477.50;;;35.11;28.52
31121;BME280;17770;45.966;13.632;2022-07-24T01:13:19;100482.25;;;35.09;28.59
31121;BME280;17770;45.966;13.632;2022-07-24T01:15:46;100484.94;;;35.09;28.60
31121;BME280;17770;45.966;13.632;2022-07-24T01:18:12;100488.41;;;35.09;28.58
31121;BME280;17770;45.966;13.632;2022-07-24T01:20:38;100481.81;;;35.05;28.77
31121;BME280;17770;45.966;13.632;2022-07-24T01:23:04;100491.50;;;35.06;28.44
31121;BME280;17770;45.966;13.632;2022-07-24T01:25:30;100478.50;;;35.03;28.77
31121;BME280;17770;45.966;13.632;2022-07-24T01:27:56;100481.19;;;35.03;28.31
31121;BME280;17770;45.966;13.632;2022-07-24T01:30:23;100483.03;;;35.03;28.16
31121;BME280;17770;45.966;13.632;2022-07-24T01:32:49;100487.59;;;35.02;28.29
31121;BME280;17770;45.966;13.632;2022-07-24T01:35:16;100483.22;;;35.01;28.70
31121;BME280;17770;45.966;13.632;2022-07-24T01:37:42;100482.41;;;35.01;28.66
31121;BME280;17770;45.966;13.632;2022-07-24T01:40:08;100492.31;;;35.00;28.37
31121;BME280;17770;45.966;13.632;2022-07-24T01:42:34;100514.78;;;34.99;28.34
31121;BME280;17770;45.966;13.632;2022-07-24T01:44:59;100540.81;;;34.99;28.36
31121;BME280;17770;45.966;13.632;2022-07-24T01:47:25;100552.53;;;34.98;28.99
31121;BME280;17770;45.966;13.632;2022-07-24T01:49:51;100571.72;;;34.95;28.78
31121;BME280;17770;45.966;13.632;2022-07-24T01:52:17;100579.75;;;34.95;28.57
31121;BME280;17770;45.966;13.632;2022-07-24T01:54:43;100594.00;;;34.95;29.01
31121;BME280;17770;45.966;13.632;2022-07-24T01:57:09;100591.31;;;34.95;28.95
31121;BME280;17770;45.966;13.632;2022-07-24T01:59:34;100586.16;;;34.94;28.85
31121;BME280;17770;45.966;13.632;2022-07-24T02:02:00;100586.16;;;34.94;28.62
31121;BME280;17770;45.966;13.632;2022-07-24T02:04:26;100573.75;;;34.93;28.72
31121;BME280;17770;45.966;13.632;2022-07-24T02:06:52;100569.44;;;34.92;28.25
31121;BME280;17770;45.966;13.632;2022-07-24T02:09:18;100563.44;;;34.90;28.59
31121;BME280;17770;45.966;13.632;2022-07-24T02:11:44;100542.97;;;34.89;28.58
31121;BME280;17770;45.966;13.632;2022-07-24T02:14:10;100526.25;;;34.87;28.74
31121;BME280;17770;45.966;13.632;2022-07-24T02:16:35;100508.53;;;34.86;28.70
31121;BME280;17770;45.966;13.632;2022-07-24T02:19:02;100486.44;;;34.84;28.85
31121;BME280;17770;45.966;13.632;2022-07-24T02:21:28;100460.63;;;34.83;28.99
31121;BME280;17770;45.966;13.632;2022-07-24T02:23:54;100452.16;;;34.79;28.77
31121;BME280;17770;45.966;13.632;2022-07-24T02:26:20;100448.66;;;34.79;28.86
31121;BME280;17770;45.966;13.632;2022-07-24T02:28:45;100465.94;;;34.76;29.15
31121;BME280;17770;45.966;13.632;2022-07-24T02:31:11;100468.63;;;34.76;28.95
31121;BME280;17770;45.966;13.632;2022-07-24T02:33:37;100473.19;;;34.76;29.07
31121;BME280;17770;45.966;13.632;2022-07-24T02:36:03;100483.28;;;34.74;29.27
31121;BME280;17770;45.966;13.632;2022-07-24T02:38:30;100479.56;;;34.75;29.46
31121;BME280;17770;45.966;13.632;2022-07-24T02:40:55;100483.28;;;34.74;29.19
31121;BME280;17770;45.966;13.632;2022-07-24T02:43:21;100484.28;;;34.73;29.04
31121;BME280;17770;45.966;13.632;2022-07-24T02:45:47;100490.47;;;34.73;29.51
31121;BME280;17770;45.966;13.632;2022-07-24T02:48:13;100494.19;;;34.72;29.50
31121;BME280;17770;45.966;13.632;2022-07-24T02:50:39;100490.88;;;34.70;29.52
31121;BME280;17770;45.966;13.632;2022-07-24T02:53:05;100487.38;;;34.70;29.29
31121;BME280;17770;45.966;13.632;2022-07-24T02:55:31;100480.16;;;34.70;29.70
31121;BME280;17770;45.966;13.632;2022-07-24T02:57:57;100473.16;;;34.69;29.65
31121;BME280;17770;45.966;13.632;2022-07-24T03:00:23;100479.53;;;34.68;29.74
31121;BME280;17770;45.966;13.632;2022-07-24T03:02:49;100470.84;;;34.66;29.87
31121;BME280;17770;45.966;13.632;2022-07-24T03:05:15;100478.88;;;34.66;29.81
31121;BME280;17770;45.966;13.632;2022-07-24T03:07:41;100478.88;;;34.66;29.61
31121;BME280;17770;45.966;13.632;2022-07-24T03:10:08;100465.88;;;34.63;30.15
31121;BME280;17770;45.966;13.632;2022-07-24T03:12:35;100473.72;;;34.65;29.80
31121;BME280;17770;45.966;13.632;2022-07-24T03:15:01;100476.41;;;34.65;30.12
31121;BME280;17770;45.966;13.632;2022-07-24T03:17:26;100476.59;;;34.63;30.03
31121;BME280;17770;45.966;13.632;2022-07-24T03:19:52;100471.25;;;34.63;29.91
31121;BME280;17770;45.966;13.632;2022-07-24T03:22:18;100473.13;;;34.63;29.53
31121;BME280;17770;45.966;13.632;2022-07-24T03:24:44;100482.16;;;34.62;29.86
31121;BME280;17770;45.966;13.632;2022-07-24T03:27:10;100484.84;;;34.62;29.89
31121;BME280;17770;45.966;13.632;2022-07-24T03:29:36;100485.88;;;34.61;29.72
31121;BME280;17770;45.966;13.632;2022-07-24T03:32:02;100484.22;;;34.60;30.07
31121;BME280;17770;45.966;13.632;2022-07-24T03:34:28;100487.94;;;34.59;30.47
31121;BME280;17770;45.966;13.632;2022-07-24T03:36:54;100492.44;;;34.58;29.98
31121;BME280;17770;45.966;13.632;2022-07-24T03:39:20;100499.69;;;34.58;30.04
31121;BME280;17770;45.966;13.632;2022-07-24T03:41:46;100498.00;;;34.57;30.58
31121;BME280;17770;45.966;13.632;2022-07-24T03:44:11;100493.69;;;34.56;30.27
31121;BME280;17770;45.966;13.632;2022-07-24T03:46:37;100497.38;;;34.55;30.58
31121;BME280;17770;45.966;13.632;2022-07-24T03:49:03;100508.09;;;34.55;30.53
31121;BME280;17770;45.966;13.632;2022-07-24T03:51:29;100503.13;;;34.52;30.33
31121;BME280;17770;45.966;13.632;2022-07-24T03:53:55;100507.50;;;34.53;30.16
31121;BME280;17770;45.966;13.632;2022-07-24T03:56:21;100504.16;;;34.51;30.78
31121;BME280;17770;45.966;13.632;2022-07-24T03:58:47;100507.03;;;34.49;30.56
31121;BME280;17770;45.966;13.632;2022-07-24T04:01:13;100505.38;;;34.48;30.95
31121;BME280;17770;45.966;13.632;2022-07-24T04:03:39;100516.72;;;34.50;30.62
31121;BME280;17770;45.966;13.632;2022-07-24T04:06:05;100519.59;;;34.49;30.50
31121;BME280;17770;45.966;13.632;2022-07-24T04:08:31;100524.31;;;34.47;30.57
31121;BME280;17770;45.966;13.632;2022-07-24T04:10:57;100518.78;;;34.48;30.97
31121;BME280;17770;45.966;13.632;2022-07-24T04:13:24;100515.28;;;34.48;30.92
31121;BME280;17770;45.966;13.632;2022-07-24T04:15:50;100513.59;;;34.47;30.79
31121;BME280;17770;45.966;13.632;2022-07-24T04:18:16;100518.78;;;34.48;30.84
31121;BME280;17770;45.966;13.632;2022-07-24T04:20:42;100528.88;;;34.46;30.67
31121;BME280;17770;45.966;13.632;2022-07-24T04:23:07;100528.03;;;34.46;31.05
31121;BME280;17770;45.966;13.632;2022-07-24T04:25:33;100526.38;;;34.45;31.00
31121;BME280;17770;45.966;13.632;2022-07-24T04:28:03;100534.00;;;34.41;30.99
31121;BME280;17770;45.966;13.632;2022-07-24T04:30:29;100526.75;;;34.42;30.90
31121;BME280;17770;45.966;13.632;2022-07-24T04:32:56;100530.66;;;34.39;31.13
31121;BME280;17770;45.966;13.632;2022-07-24T04:35:22;100531.44;;;34.40;30.73
31121;BME280;17770;45.966;13.632;2022-07-24T04:37:48;100536.81;;;34.40;31.17
31121;BME280;17770;45.966;13.632;2022-07-24T04:40:13;100531.66;;;34.38;30.68
31121;BME280;17770;45.966;13.632;2022-07-24T04:42:40;100533.31;;;34.39;30.94
31121;BME280;17770;45.966;13.632;2022-07-24T04:45:06;100537.19;;;34.37;30.85
31121;BME280;17770;45.966;13.632;2022-07-24T04:47:34;100539.06;;;34.36;31.11
31121;BME280;17770;45.966;13.632;2022-07-24T04:50:00;100547.31;;;34.35;31.36
31121;BME280;17770;45.966;13.632;2022-07-24T04:52:25;100542.97;;;34.34;31.19
31121;BME280;17770;45.966;13.632;2022-07-24T04:54:51;100540.28;;;34.34;31.33
31121;BME280;17770;45.966;13.632;2022-07-24T04:57:17;100536.75;;;34.33;31.29
31121;BME280;17770;45.966;13.632;2022-07-24T04:59:43;100542.13;;;34.33;31.25
31121;BME280;17770;45.966;13.632;2022-07-24T05:02:09;100535.13;;;34.32;31.35
31121;BME280;17770;45.966;13.632;2022-07-24T05:04:35;100546.88;;;34.31;31.22
31121;BME280;17770;45.966;13.632;2022-07-24T05:07:01;100546.03;;;34.31;31.41
31121;BME280;17770;45.966;13.632;2022-07-24T05:09:27;100554.06;;;34.31;31.44
31121;BME280;17770;45.966;13.632;2022-07-24T05:11:53;100545.38;;;34.28;31.55
31121;BME280;17770;45.966;13.632;2022-07-24T05:14:19;100553.44;;;34.28;31.15
31121;BME280;17770;45.966;13.632;2022-07-24T05:16:45;100560.63;;;34.28;31.43
31121;BME280;17770;45.966;13.632;2022-07-24T05:19:11;100563.50;;;34.26;31.61
31121;BME280;17770;45.966;13.632;2022-07-24T05:21:37;100558.13;;;34.26;31.70
31121;BME280;17770;45.966;13.632;2022-07-24T05:24:03;100560.22;;;34.24;31.75
31121;BME280;17770;45.966;13.632;2022-07-24T05:26:29;100556.69;;;34.24;31.49
31121;BME280;17770;45.966;13.632;2022-07-24T05:29:05;100552.34;;;34.23;31.48
31121;BME280;17770;45.966;13.632;2022-07-24T05:31:32;100560.38;;;34.23;31.56
31121;BME280;17770;45.966;13.632;2022-07-24T05:33:58;100556.03;;;34.22;31.65
31121;BME280;17770;45.966;13.632;2022-07-24T05:36:24;100560.38;;;34.23;31.92
31121;BME280;17770;45.966;13.632;2022-07-24T05:38:50;100552.72;;;34.20;31.68
31121;BME280;17770;45.966;13.632;2022-07-24T05:41:16;100558.91;;;34.20;31.68
31121;BME280;17770;45.966;13.632;2022-07-24T05:43:42;100562.44;;;34.21;31.75
31121;BME280;17770;45.966;13.632;2022-07-24T05:46:08;100563.63;;;34.18;31.63
31121;BME280;17770;45.966;13.632;2022-07-24T05:48:33;100568.00;;;34.19;31.66
31121;BME280;17770;45.966;13.632;2022-07-24T05:50:59;100562.63;;;34.19;31.59
31121;BME280;17770;45.966;13.632;2022-07-24T05:53:25;100568.19;;;34.18;31.64
31121;BME280;17770;45.966;13.632;2022-07-24T05:55:51;100576.22;;;34.18;31.87
31121;BME280;17770;45.966;13.632;2022-07-24T05:58:17;100567.34;;;34.17;31.80
31121;BME280;17770;45.966;13.632;2022-07-24T06:00:43;100570.03;;;34.17;32.01
31121;BME280;17770;45.966;13.632;2022-07-24T06:03:09;100566.50;;;34.17;31.94
31121;BME280;17770;45.966;13.632;2022-07-24T06:05:35;100570.22;;;34.16;32.04
31121;BME280;17770;45.966;13.632;2022-07-24T06:08:01;100580.09;;;34.15;32.08
31121;BME280;17770;45.966;13.632;2022-07-24T06:10:27;100572.06;;;34.15;31.78
31121;BME280;17770;45.966;13.632;2022-07-24T06:12:53;100574.09;;;34.13;32.05
31121;BME280;17770;45.966;13.632;2022-07-24T06:15:19;100568.53;;;34.15;31.76
31121;BME280;17770;45.966;13.632;2022-07-24T06:17:45;100572.25;;;34.14;31.69
31121;BME280;17770;45.966;13.632;2022-07-24T06:20:11;100574.09;;;34.13;31.95
31121;BME280;17770;45.966;13.632;2022-07-24T06:22:42;100572.66;;;34.11;32.11
31121;BME280;17770;45.966;13.632;2022-07-24T06:25:08;100579.44;;;34.13;31.97
31121;BME280;17770;45.966;13.632;2022-07-24T06:27:39;100581.69;;;34.10;31.81
31121;BME280;17770;45.966;13.632;2022-07-24T06:30:05;100581.50;;;34.11;31.85
31121;BME280;17770;45.966;13.632;2022-07-24T06:32:31;100585.19;;;34.10;32.23
31121;BME280;17770;45.966;13.632;2022-07-24T06:34:57;100586.03;;;34.11;31.95
31121;BME280;17770;45.966;13.632;2022-07-24T06:37:23;100587.88;;;34.10;32.15
31121;BME280;17770;45.966;13.632;2022-07-24T06:39:49;100582.53;;;34.10;31.97
31121;BME280;17770;45.966;13.632;2022-07-24T06:42:15;100594.06;;;34.11;31.96
31121;BME280;17770;45.966;13.632;2022-07-24T06:44:40;100594.47;;;34.08;31.90
31121;BME280;17770;45.966;13.632;2022-07-24T06:47:06;100588.91;;;34.09;31.77
31121;BME280;17770;45.966;13.632;2022-07-24T06:49:32;100584.56;;;34.08;32.20
31121;BME280;17770;45.966;13.632;2022-07-24T06:51:58;100587.44;;;34.07;32.15
31121;BME280;17770;45.966;13.632;2022-07-24T06:54:24;100588.91;;;34.09;32.31
31121;BME280;17770;45.966;13.632;2022-07-24T06:56:49;100584.56;;;34.08;32.01
31121;BME280;17770;45.966;13.632;2022-07-24T06:59:15;100590.75;;;34.09;32.06
31121;BME280;17770;45.966;13.632;2022-07-24T07:01:42;100589.91;;;34.08;31.97
31121;BME280;17770;45.966;13.632;2022-07-24T07:04:07;100591.59;;;34.09;32.35
31121;BME280;17770;45.966;13.632;2022-07-24T07:06:33;100586.44;;;34.08;31.85
31121;BME280;17770;45.966;13.632;2022-07-24T07:08:59;100591.59;;;34.09;32.06
31121;BME280;17770;45.966;13.632;2022-07-24T07:11:25;100593.22;;;34.10;31.86
31121;BME280;17770;45.966;13.632;2022-07-24T07:13:51;100592.41;;;34.10;31.97
31121;BME280;17770;45.966;13.632;2022-07-24T07:16:17;100588.91;;;34.09;31.98
31121;BME280;17770;45.966;13.632;2022-07-24T07:18:42;100601.47;;;34.09;31.74
31121;BME280;17770;45.966;13.632;2022-07-24T07:21:08;100595.28;;;34.08;31.87
31121;BME280;17770;45.966;13.632;2022-07-24T07:23:34;100602.31;;;34.09;31.85
31121;BME280;17770;45.966;13.632;2022-07-24T07:26:00;100598.97;;;34.07;31.85
31121;BME280;17770;45.966;13.632;2022-07-24T07:28:26;100601.47;;;34.09;31.96
31121;BME280;17770;45.966;13.632;2022-07-24T07:30:52;100602.31;;;34.09;31.84
31121;BME280;17770;45.966;13.632;2022-07-24T07:33:18;100595.91;;;34.10;31.96
31121;BME280;17770;45.966;13.632;2022-07-24T07:35:44;100595.91;;;34.10;31.53
31121;BME280;17770;45.966;13.632;2022-07-24T07:38:10;100597.56;;;34.11;31.93
31121;BME280;17770;45.966;13.632;2022-07-24T07:40:36;100594.88;;;34.11;31.50
31121;BME280;17770;45.966;13.632;2022-07-24T07:43:01;100604.59;;;34.12;31.69
31121;BME280;17770;45.966;13.632;2022-07-24T07:45:27;100592.84;;;34.13;31.66
31121;BME280;17770;45.966;13.632;2022-07-24T07:47:53;100596.16;;;34.15;31.74
31121;BME280;17770;45.966;13.632;2022-07-24T07:50:19;100594.31;;;34.16;31.74
31121;BME280;17770;45.966;13.632;2022-07-24T07:52:45;100593.50;;;34.15;31.63
31121;BME280;17770;45.966;13.632;2022-07-24T07:55:11;100597.00;;;34.16;31.44
31121;BME280;17770;45.966;13.632;2022-07-24T07:57:37;100592.47;;;34.16;31.35
31121;BME280;17770;45.966;13.632;2022-07-24T08:00:05;100598.47;;;34.18;31.50
31121;BME280;17770;45.966;13.632;2022-07-24T08:02:37;100588.59;;;34.19;31.33
31121;BME280;17770;45.966;13.632;2022-07-24T08:05:03;100591.25;;;34.19;31.71
31121;BME280;17770;45.966;13.632;2022-07-24T08:07:29;100588.78;;;34.17;31.56
31121;BME280;17770;45.966;13.632;2022-07-24T08:09:55;100595.91;;;34.10;32.11
31121;BME280;17770;45.966;13.632;2022-07-24T08:12:21;100599.28;;;33.98;32.46
31121;BME280;17770;45.966;13.632;2022-07-24T08:14:46;100588.50;;;33.77;32.97
31121;BME280;17770;45.966;13.632;2022-07-24T08:17:12;100595.72;;;33.76;33.02
31121;BME280;17770;45.966;13.632;2022-07-24T08:19:38;100597.25;;;33.85;32.58
31121;BME280;17770;45.966;13.632;2022-07-24T08:22:04;100596.34;;;33.93;32.56
31121;BME280;17770;45.966;13.632;2022-07-24T08:24:30;100602.78;;;33.98;32.57
31121;BME280;17770;45.966;13.632;2022-07-24T08:26:58;100593.38;;;34.02;32.27
31121;BME280;17770;45.966;13.632;2022-07-24T08:29:24;100593.81;;;34.06;32.39
31121;BME280;17770;45.966;13.632;2022-07-24T08:31:50;100589.16;;;34.14;31.95
31121;BME280;17770;45.966;13.632;2022-07-24T08:34:16;100590.00;;;33.79;32.71
31121;BME280;17770;45.966;13.632;2022-07-24T08:36:42;100592.38;;;33.53;33.25
31121;BME280;17770;45.966;13.632;2022-07-24T08:39:11;100595.31;;;33.58;33.01
31121;BME280;17770;45.966;13.632;2022-07-24T08:41:38;100597.69;;;33.68;33.23
31121;BME280;17770;45.966;13.632;2022-07-24T08:44:04;100589.22;;;33.85;33.09
31121;BME280;17770;45.966;13.632;2022-07-24T08:46:31;100590.19;;;33.78;32.90
31121;BME280;17770;45.966;13.632;2022-07-24T08:48:58;100596.56;;;33.91;32.63
31121;BME280;17770;45.966;13.632;2022-07-24T08:51:33;100594.00;;;34.04;32.41
31121;BME280;17770;45.966;13.632;2022-07-24T08:54:02;100593.63;;;34.07;32.23
31121;BME280;17770;45.966;13.632;2022-07-24T08:56:28;100595.13;;;33.95;32.97
31121;BME280;17770;45.966;13.632;2022-07-24T08:58:55;100596.88;;;34.03;32.75
31121;BME280;17770;45.966;13.632;2022-07-24T09:01:21;100597.75;;;34.10;32.38
31121;BME280;17770;45.966;13.632;2022-07-24T09:03:47;100601.06;;;34.12;32.31
31121;BME280;17770;45.966;13.632;2022-07-24T09:06:13;100599.03;;;34.14;32.61
31121;BME280;17770;45.966;13.632;2022-07-24T09:08:40;100603.44;;;34.21;32.30
31121;BME280;17770;45.966;13.632;2022-07-24T09:11:06;100601.84;;;34.27;31.93
31121;BME280;17770;45.966;13.632;2022-07-24T09:13:35;100614.91;;;34.15;32.35
31121;BME280;17770;45.966;13.632;2022-07-24T09:16:23;100604.84;;;33.96;32.49
31121;BME280;17770;45.966;13.632;2022-07-24T09:18:50;100606.69;;;33.96;32.54
31121;BME280;17770;45.966;13.632;2022-07-24T09:21:16;100603.03;;;34.03;32.19
31121;BME280;17770;45.966;13.632;2022-07-24T09:23:44;100607.78;;;34.01;32.78
31121;BME280;17770;45.966;13.632;2022-07-24T09:26:10;100603.03;;;34.03;32.64
31121;BME280;17770;45.966;13.632;2022-07-24T09:28:49;100604.84;;;34.17;32.42
31121;BME280;17770;45.966;13.632;2022-07-24T09:31:16;100609.44;;;34.23;32.23
31121;BME280;17770;45.966;13.632;2022-07-24T09:34:08;100613.56;;;34.41;31.97
31121;BME280;17770;45.966;13.632;2022-07-24T09:36:34;100607.81;;;34.44;31.78
31121;BME280;17770;45.966;13.632;2022-07-24T09:38:59;100598.56;;;34.32;31.70
31121;BME280;17770;45.966;13.632;2022-07-24T09:41:26;100599.63;;;34.31;31.87
31121;BME280;17770;45.966;13.632;2022-07-24T09:43:59;100602.03;;;34.47;31.64
31121;BME280;17770;45.966;13.632;2022-07-24T09:46:25;100602.94;;;34.54;31.35
31121;BME280;17770;45.966;13.632;2022-07-24T09:48:53;100602.41;;;34.65;31.21
31121;BME280;17770;45.966;13.632;2022-07-24T09:51:19;100609.03;;;34.69;31.55
31121;BME280;17770;45.966;13.632;2022-07-24T09:53:46;100602.13;;;34.81;30.83
31121;BME280;17770;45.966;13.632;2022-07-24T09:56:13;100598.41;;;34.82;31.04
31121;BME280;17770;45.966;13.632;2022-07-24T09:58:49;100595.69;;;34.75;31.22
31121;BME280;17770;45.966;13.632;2022-07-24T10:01:17;100603.97;;;34.80;30.63
31121;BME280;17770;45.966;13.632;2022-07-24T10:03:44;100598.00;;;34.85;30.90
31121;BME280;17770;45.966;13.632;2022-07-24T10:06:12;100596.81;;;34.87;30.55
31121;BME280;17770;45.966;13.632;2022-07-24T10:08:38;100599.56;;;34.73;31.33
31121;BME280;17770;45.966;13.632;2022-07-24T10:11:04;100596.72;;;34.74;30.91
31121;BME280;17770;45.966;13.632;2022-07-24T10:13:31;100594.09;;;34.81;30.49
31121;BME280;17770;45.966;13.632;2022-07-24T10:21:05;100584.00;;;35.10;30.14
31121;BME280;17770;45.966;13.632;2022-07-24T10:23:35;100587.13;;;35.20;29.90
31121;BME280;17770;45.966;13.632;2022-07-24T10:26:08;100586.09;;;35.21;29.76
31121;BME280;17770;45.966;13.632;2022-07-24T10:28:40;100575.75;;;35.12;30.31
31121;BME280;17770;45.966;13.632;2022-07-24T10:31:08;100579.25;;;34.85;30.36
31121;BME280;17770;45.966;13.632;2022-07-24T10:33:34;100583.31;;;35.02;30.06
31121;BME280;17770;45.966;13.632;2022-07-24T10:36:01;100577.19;;;35.14;29.67
31121;BME280;17770;45.966;13.632;2022-07-24T10:38:29;100582.75;;;35.13;29.64
31121;BME280;17770;45.966;13.632;2022-07-24T10:41:01;100570.88;;;35.28;29.48
31121;BME280;17770;45.966;13.632;2022-07-24T10:43:28;100572.50;;;35.29;29.12
31121;BME280;17770;45.966;13.632;2022-07-24T10:53:30;100568.53;;;34.85;30.44
31121;BME280;17770;45.966;13.632;2022-07-24T10:56:16;100568.47;;;34.78;30.16
31121;BME280;17770;45.966;13.632;2022-07-24T11:01:30;100558.53;;;35.00;30.37
31121;BME280;17770;45.966;13.632;2022-07-24T11:03:56;100556.78;;;34.86;30.37
31121;BME280;17770;45.966;13.632;2022-07-24T11:09:23;100556.69;;;34.73;29.53
31121;BME280;17770;45.966;13.632;2022-07-24T11:14:18;100544.19;;;34.86;29.63
31121;BME280;17770;45.966;13.632;2022-07-24T11:16:47;100553.41;;;35.05;29.86
31121;BME280;17770;45.966;13.632;2022-07-24T11:21:43;100549.03;;;34.97;30.12
31121;BME280;17770;45.966;13.632;2022-07-24T11:26:57;100535.25;;;34.79;29.85
31121;BME280;17770;45.966;13.632;2022-07-24T11:29:30;100534.25;;;34.80;30.11
31121;BME280;17770;45.966;13.632;2022-07-24T11:32:08;100529.63;;;34.95;29.64
31121;BME280;17770;45.966;13.632;2022-07-24T11:34:34;100534.50;;;35.26;29.41
31121;BME280;17770;45.966;13.632;2022-07-24T11:37:01;100533.41;;;35.48;29.29
31121;BME280;17770;45.966;13.632;2022-07-24T11:39:31;100527.31;;;35.33;29.43
31121;BME280;17770;45.966;13.632;2022-07-24T11:46:54;100525.19;;;35.15;29.63
31121;BME280;17770;45.966;13.632;2022-07-24T11:49:23;100524.31;;;35.02;30.25
31121;BME280;17770;45.966;13.632;2022-07-24T11:51:50;100518.53;;;35.05;30.04
31121;BME280;17770;45.966;13.632;2022-07-24T11:54:27;100513.03;;;35.26;30.94
31121;BME280;17770;45.966;13.632;2022-07-24T11:56:53;100515.03;;;35.11;29.64
31121;BME280;17770;45.966;13.632;2022-07-24T12:01:54;100506.66;;;35.20;30.27
31121;BME280;17770;45.966;13.632;2022-07-24T12:04:20;100505.56;;;35.08;29.58
31121;BME280;17770;45.966;13.632;2022-07-24T12:06:47;100508.94;;;35.30;30.37
31121;BME280;17770;45.966;13.632;2022-07-24T12:09:13;100504.53;;;35.57;29.90
31121;BME280;17770;45.966;13.632;2022-07-24T12:11:39;100504.09;;;35.60;29.86
31121;BME280;17770;45.966;13.632;2022-07-24T12:14:26;100494.38;;;35.52;29.58
31121;BME280;17770;45.966;13.632;2022-07-24T12:16:52;100499.31;;;35.42;29.29
31121;BME280;17770;45.966;13.632;2022-07-24T12:19:19;100499.00;;;35.24;29.35
31121;BME280;17770;45.966;13.632;2022-07-24T12:21:46;100486.47;;;35.37;30.25
31121;BME280;17770;45.966;13.632;2022-07-24T12:24:12;100492.72;;;35.51;29.45
31121;BME280;17770;45.966;13.632;2022-07-24T12:29:40;100485.72;;;35.50;29.60
31121;BME280;17770;45.966;13.632;2022-07-24T12:32:16;100478.72;;;35.69;29.56
31121;BME280;17770;45.966;13.632;2022-07-24T12:34:43;100473.09;;;35.51;29.37
31121;BME280;17770;45.966;13.632;2022-07-24T12:39:48;100464.84;;;35.52;29.27
31121;BME280;17770;45.966;13.632;2022-07-24T12:42:14;100473.25;;;35.36;29.16
31121;BME280;17770;45.966;13.632;2022-07-24T12:44:41;100466.22;;;35.35;29.17
31121;BME280;17770;45.966;13.632;2022-07-24T12:47:08;100466.03;;;35.36;29.92
31121;BME280;17770;45.966;13.632;2022-07-24T12:49:44;100457.41;;;35.54;28.93
31121;BME280;17770;45.966;13.632;2022-07-24T12:52:21;100461.53;;;35.43;28.95
31121;BME280;17770;45.966;13.632;2022-07-24T12:54:49;100448.16;;;35.63;29.28
31121;BME280;17770;45.966;13.632;2022-07-24T12:57:15;100449.16;;;35.62;28.84
31121;BME280;17770;45.966;13.632;2022-07-24T12:59:42;100448.78;;;35.72;28.63
31121;BME280;17770;45.966;13.632;2022-07-24T13:04:41;100441.53;;;35.72;28.75
31121;BME280;17770;45.966;13.632;2022-07-24T13:07:07;100451.69;;;35.70;28.72
31121;BME280;17770;45.966;13.632;2022-07-24T13:09:33;100442.81;;;35.89;29.38
31121;BME280;17770;45.966;13.632;2022-07-24T13:11:59;100444.00;;;35.80;28.15
31121;BME280;17770;45.966;13.632;2022-07-24T13:14:25;100436.78;;;35.68;28.11
31121;BME280;17770;45.966;13.632;2022-07-24T13:16:51;100440.50;;;35.60;28.82
31121;BME280;17770;45.966;13.632;2022-07-24T13:19:18;100437.19;;;35.58;29.11